Time,TemperatureF,DewpointF,PressureIn,WindDirection,WindDirectionDegrees,WindSpeedMPH,WindSpeedGustMPH,Humidity,HourlyPrecipIn,Conditions,Clouds,dailyrainin,SolarRadiationWatts/m^2,SoftwareType,DateUTC
2013-10-11 00:02:00,41.0,40.0,-100.00,SSW,193,0.0,2.0,98,0.00,,,0.08,0.000000,,2013-10-11 07:02:00,
2013-10-11 00:11:00,41.0,40.0,-100.00,SSW,193,0.0,2.0,98,0.00,,,0.08,0.000000,,2013-10-11 07:11:00,
2013-10-11 00:21:00,41.0,40.0,-100.00,SSW,193,0.0,2.0,98,0.00,,,0.08,0.000000,,2013-10-11 07:21:00,
2013-10-11 00:52:00,41.0,40.0,-100.00,SSE,161,0.0,3.0,98,0.00,,,0.08,0.000000,,2013-10-11 07:52:00,
2013-10-11 01:02:00,41.0,40.0,-100.00,SSE,161,0.0,3.0,98,0.00,,,0.08,0.000000,,2013-10-11 08:02:00,
2013-10-11 01:11:00,41.0,40.0,-100.00,SSE,161,0.0,3.0,98,0.00,,,0.08,0.000000,,2013-10-11 08:11:00,
2013-10-11 01:21:00,41.0,40.0,-100.00,SSE,161,0.0,3.0,98,0.00,,,0.08,0.000000,,2013-10-11 08:21:00,
2013-10-11 01:52:00,41.0,40.0,-100.00,SSE,149,1.0,3.0,98,0.00,,,0.08,0.000000,,2013-10-11 08:52:00,
2013-10-11 02:01:00,41.0,40.0,-100.00,SSE,149,1.0,3.0,98,0.00,,,0.08,0.000000,,2013-10-11 09:01:00,
2013-10-11 02:12:00,41.0,40.0,-100.00,SSE,149,1.0,3.0,98,0.00,,,0.08,0.000000,,2013-10-11 09:12:00,
2013-10-11 02:22:00,41.0,40.0,-100.00,SSE,149,1.0,3.0,98,0.00,,,0.08,0.000000,,2013-10-11 09:22:00,
2013-10-11 02:54:00,41.0,40.0,-100.00,ESE,118,2.0,3.0,98,0.00,,,0.08,0.000000,,2013-10-11 09:54:00,
2013-10-11 03:03:00,41.0,40.0,-100.00,ESE,118,2.0,3.0,98,0.00,,,0.08,0.000000,,2013-10-11 10:03:00,
2013-10-11 03:12:00,41.0,40.0,-100.00,ESE,118,2.0,3.0,98,0.00,,,0.08,0.000000,,2013-10-11 10:12:00,
2013-10-11 03:23:00,41.0,40.0,-100.00,ESE,118,2.0,3.0,98,0.00,,,0.08,0.000000,,2013-10-11 10:23:00,
2013-10-11 03:53:00,42.0,41.0,-100.00,SW,219,1.0,3.0,97,0.00,,,-99.99,0.000000,,2013-10-11 10:53:00,
2013-10-11 04:02:00,42.0,41.0,-100.00,SW,219,1.0,3.0,97,0.00,,,-99.99,0.000000,,2013-10-11 11:02:00,
2013-10-11 04:12:00,42.0,41.0,-100.00,SW,219,1.0,3.0,97,0.00,,,-99.99,0.000000,,2013-10-11 11:12:00,
2013-10-11 04:22:00,42.0,41.0,-100.00,SW,219,1.0,3.0,97,0.00,,,-99.99,0.000000,,2013-10-11 11:22:00,
2013-10-11 04:52:00,41.0,40.0,-100.00,SE,143,1.0,3.0,97,0.00,,,-99.99,0.000000,,2013-10-11 11:52:00,
2013-10-11 05:02:00,41.0,40.0,-100.00,SE,143,1.0,3.0,97,0.00,,,-99.99,0.000000,,2013-10-11 12:02:00,
2013-10-11 05:11:00,41.0,40.0,-100.00,SE,143,1.0,3.0,97,0.00,,,-99.99,0.000000,,2013-10-11 12:11:00,
2013-10-11 05:22:00,41.0,40.0,-100.00,SE,143,1.0,3.0,97,0.00,,,-99.99,0.000000,,2013-10-11 12:22:00,
2013-10-11 05:52:00,41.0,40.0,-100.00,SSW,204,0.0,3.0,98,0.00,,,-99.99,0.000000,,2013-10-11 12:52:00,
2013-10-11 06:02:00,41.0,40.0,-100.00,SSW,204,0.0,3.0,98,0.00,,,-99.99,0.000000,,2013-10-11 13:02:00,
2013-10-11 06:12:00,41.0,40.0,-100.00,SSW,204,0.0,3.0,98,0.00,,,-99.99,0.000000,,2013-10-11 13:12:00,
2013-10-11 06:21:00,41.0,40.0,-100.00,SSW,204,0.0,3.0,98,0.00,,,-99.99,0.000000,,2013-10-11 13:21:00,
2013-10-11 06:53:00,41.0,40.0,-100.00,ESE,111,0.0,1.0,98,0.00,,,-99.99,0.000000,,2013-10-11 13:53:00,
2013-10-11 07:02:00,41.0,40.0,-100.00,ESE,111,0.0,1.0,98,0.00,,,-99.99,0.000000,,2013-10-11 14:02:00,
2013-10-11 07:11:00,41.0,40.0,-100.00,ESE,111,0.0,1.0,98,0.00,,,-99.99,0.000000,,2013-10-11 14:11:00,
2013-10-11 07:22:00,41.0,40.0,-100.00,ESE,111,0.0,1.0,98,0.00,,,-99.99,0.000000,,2013-10-11 14:22:00,
2013-10-11 07:52:00,41.0,40.0,-100.00,SSE,154,1.0,3.0,97,0.00,,,0.08,0.000000,,2013-10-11 14:52:00,
2013-10-11 08:02:00,41.0,40.0,-100.00,SSE,154,1.0,3.0,97,0.00,,,0.08,0.000000,,2013-10-11 15:02:00,
2013-10-11 08:11:00,41.0,40.0,-100.00,SSE,154,1.0,3.0,97,0.00,,,0.08,0.000000,,2013-10-11 15:11:00,
2013-10-11 08:22:00,41.0,40.0,-100.00,SSE,154,1.0,3.0,97,0.00,,,0.08,0.000000,,2013-10-11 15:22:00,
2013-10-11 08:54:00,41.0,40.0,-100.00,South,176,0.0,3.0,96,0.00,,,0.08,9.000000,,2013-10-11 15:54:00,
2013-10-11 09:04:00,41.0,40.0,-100.00,South,176,0.0,3.0,96,0.00,,,0.08,9.000000,,2013-10-11 16:04:00,
2013-10-11 09:13:00,41.0,40.0,-100.00,South,176,0.0,3.0,96,0.00,,,0.08,9.000000,,2013-10-11 16:13:00,
2013-10-11 09:22:00,41.0,40.0,-100.00,South,176,0.0,3.0,96,0.00,,,0.08,9.000000,,2013-10-11 16:22:00,
2013-10-11 09:53:00,44.0,43.0,-100.00,East,93,1.0,3.0,95,0.00,,,0.08,87.000000,,2013-10-11 16:53:00,
2013-10-11 10:03:00,44.0,43.0,-100.00,East,93,1.0,3.0,95,0.00,,,0.08,87.000000,,2013-10-11 17:03:00,
2013-10-11 10:12:00,44.0,43.0,-100.00,East,93,1.0,3.0,95,0.00,,,0.08,87.000000,,2013-10-11 17:12:00,
2013-10-11 10:21:00,44.0,43.0,-100.00,East,93,1.0,3.0,95,0.00,,,0.08,87.000000,,2013-10-11 17:21:00,
2013-10-11 10:53:00,46.0,44.0,-100.00,East,83,0.0,2.0,91,0.00,,,0.07,187.000000,,2013-10-11 17:53:00,
2013-10-11 11:02:00,46.0,44.0,-100.00,East,83,0.0,2.0,91,0.00,,,0.07,187.000000,,2013-10-11 18:02:00,
2013-10-11 11:12:00,46.0,44.0,-100.00,East,83,0.0,2.0,91,0.00,,,0.07,187.000000,,2013-10-11 18:12:00,
2013-10-11 11:21:00,46.0,44.0,-100.00,East,83,0.0,2.0,91,0.00,,,0.07,187.000000,,2013-10-11 18:21:00,
2013-10-11 11:53:00,47.0,44.0,-100.00,North,351,0.0,3.0,89,0.00,,,0.06,198.000000,,2013-10-11 18:53:00,
2013-10-11 12:02:00,47.0,44.0,-100.00,North,351,0.0,3.0,89,0.00,,,0.06,198.000000,,2013-10-11 19:02:00,
2013-10-11 12:11:00,47.0,44.0,-100.00,North,351,0.0,3.0,89,0.00,,,0.06,198.000000,,2013-10-11 19:11:00,
2013-10-11 12:21:00,47.0,44.0,-100.00,North,351,0.0,3.0,89,0.00,,,0.06,198.000000,,2013-10-11 19:21:00,
2013-10-11 12:52:00,47.0,44.0,-100.00,NW,318,2.0,4.0,89,0.00,,,0.01,191.000000,,2013-10-11 19:52:00,
2013-10-11 13:02:00,47.0,44.0,-100.00,NW,318,2.0,4.0,89,0.00,,,0.01,191.000000,,2013-10-11 20:02:00,
2013-10-11 13:12:00,47.0,44.0,-100.00,NW,318,2.0,4.0,89,0.00,,,0.01,191.000000,,2013-10-11 20:12:00,
2013-10-11 13:22:00,47.0,44.0,-100.00,NW,318,2.0,4.0,89,0.00,,,0.01,191.000000,,2013-10-11 20:22:00,
2013-10-11 13:53:00,47.0,44.0,-100.00,NW,322,2.0,6.0,89,0.00,,,0.00,220.000000,,2013-10-11 20:53:00,
2013-10-11 14:02:00,47.0,44.0,-100.00,NW,322,2.0,6.0,89,0.00,,,0.00,220.000000,,2013-10-11 21:02:00,
2013-10-11 14:12:00,47.0,44.0,-100.00,NW,322,2.0,6.0,89,0.00,,,0.00,220.000000,,2013-10-11 21:12:00,
2013-10-11 14:22:00,47.0,44.0,-100.00,NW,322,2.0,6.0,89,0.00,,,0.00,220.000000,,2013-10-11 21:22:00,
2013-10-11 14:55:00,48.0,42.0,-100.00,SW,226,2.0,8.0,81,0.00,,,0.00,159.000000,,2013-10-11 21:55:00,
2013-10-11 15:04:00,48.0,42.0,-100.00,SW,226,2.0,8.0,81,0.00,,,0.00,159.000000,,2013-10-11 22:04:00,
2013-10-11 15:13:00,48.0,42.0,-100.00,SW,226,2.0,8.0,81,0.00,,,0.00,159.000000,,2013-10-11 22:13:00,
2013-10-11 15:23:00,48.0,42.0,-100.00,SW,226,2.0,8.0,81,0.00,,,0.00,159.000000,,2013-10-11 22:23:00,
2013-10-11 15:54:00,50.0,42.0,-100.00,West,265,1.0,6.0,73,0.00,,,0.00,252.000000,,2013-10-11 22:54:00,
2013-10-11 16:03:00,50.0,42.0,-100.00,West,265,1.0,6.0,73,0.00,,,0.00,252.000000,,2013-10-11 23:03:00,
2013-10-11 16:12:00,50.0,42.0,-100.00,West,265,1.0,6.0,73,0.00,,,0.00,252.000000,,2013-10-11 23:12:00,
2013-10-11 16:22:00,50.0,42.0,-100.00,West,265,1.0,6.0,73,0.00,,,0.00,252.000000,,2013-10-11 23:22:00,
2013-10-11 16:53:00,46.0,44.0,-100.00,NNW,332,3.0,8.0,93,0.00,,,0.00,154.000000,,2013-10-11 23:53:00,
2013-10-11 17:02:00,46.0,44.0,-100.00,NNW,332,3.0,8.0,93,0.00,,,0.00,154.000000,,2013-10-12 00:02:00,
2013-10-11 17:12:00,46.0,44.0,-100.00,NNW,332,3.0,8.0,93,0.00,,,0.00,154.000000,,2013-10-12 00:12:00,
2013-10-11 17:22:00,46.0,44.0,-100.00,NNW,332,3.0,8.0,93,0.00,,,0.00,154.000000,,2013-10-12 00:22:00,
2013-10-11 17:53:00,43.0,42.0,-100.00,NW,321,2.0,6.0,97,0.00,,,0.00,41.000000,,2013-10-12 00:53:00,
2013-10-11 18:02:00,43.0,42.0,-100.00,NW,321,2.0,6.0,97,0.00,,,0.00,41.000000,,2013-10-12 01:02:00,
2013-10-11 18:11:00,43.0,42.0,-100.00,NW,321,2.0,6.0,97,0.00,,,0.00,41.000000,,2013-10-12 01:11:00,
2013-10-11 18:22:00,43.0,42.0,-100.00,NW,321,2.0,6.0,97,0.00,,,0.00,41.000000,,2013-10-12 01:22:00,
2013-10-11 18:52:00,43.0,42.0,-100.00,NW,318,2.0,4.0,97,0.00,,,0.00,41.000000,,2013-10-12 01:52:00,
2013-10-11 19:02:00,43.0,42.0,-100.00,NW,318,2.0,4.0,97,0.00,,,0.00,41.000000,,2013-10-12 02:02:00,
2013-10-11 19:12:00,43.0,42.0,-100.00,NW,318,2.0,4.0,97,0.00,,,0.00,41.000000,,2013-10-12 02:12:00,
2013-10-11 19:23:00,43.0,42.0,-100.00,NW,318,2.0,4.0,97,0.00,,,0.00,41.000000,,2013-10-12 02:23:00,
2013-10-11 19:52:00,43.0,41.0,-100.00,ESE,114,0.0,5.0,94,0.00,,,0.00,0.000000,,2013-10-12 02:52:00,
2013-10-11 20:02:00,43.0,41.0,-100.00,ESE,114,0.0,5.0,94,0.00,,,0.00,0.000000,,2013-10-12 03:02:00,
2013-10-11 20:12:00,43.0,41.0,-100.00,ESE,114,0.0,5.0,94,0.00,,,0.00,0.000000,,2013-10-12 03:12:00,
2013-10-11 20:23:00,43.0,41.0,-100.00,ESE,114,0.0,5.0,94,0.00,,,0.00,0.000000,,2013-10-12 03:23:00,
2013-10-11 20:54:00,42.0,41.0,-100.00,WNW,297,2.0,4.0,97,0.00,,,0.00,0.000000,,2013-10-12 03:54:00,
2013-10-11 21:04:00,42.0,41.0,-100.00,WNW,297,2.0,4.0,97,0.00,,,0.00,0.000000,,2013-10-12 04:04:00,
2013-10-11 21:14:00,42.0,41.0,-100.00,WNW,297,2.0,4.0,97,0.00,,,0.00,0.000000,,2013-10-12 04:14:00,
2013-10-11 21:24:00,42.0,41.0,-100.00,WNW,297,2.0,4.0,97,0.00,,,0.00,0.000000,,2013-10-12 04:24:00,
2013-10-11 21:54:00,41.0,40.0,-100.00,SE,142,1.0,3.0,97,0.00,,,0.00,0.000000,,2013-10-12 04:54:00,
2013-10-11 22:03:00,41.0,40.0,-100.00,SE,142,1.0,3.0,97,0.00,,,0.00,0.000000,,2013-10-12 05:03:00,
2013-10-11 22:13:00,41.0,40.0,-100.00,SE,142,1.0,3.0,97,0.00,,,0.00,0.000000,,2013-10-12 05:13:00,
2013-10-11 22:23:00,41.0,40.0,-100.00,SE,142,1.0,3.0,97,0.00,,,0.00,0.000000,,2013-10-12 05:23:00,
2013-10-11 22:52:00,41.0,40.0,-100.00,SW,216,0.0,2.0,97,0.00,,,0.00,0.000000,,2013-10-12 05:52:00,
2013-10-11 23:02:00,41.0,40.0,-100.00,SW,216,0.0,2.0,97,0.00,,,0.00,0.000000,,2013-10-12 06:02:00,
2013-10-11 23:12:00,41.0,40.0,-100.00,SW,216,0.0,2.0,97,0.00,,,0.00,0.000000,,2013-10-12 06:12:00,
2013-10-11 23:22:00,41.0,40.0,-100.00,SW,216,0.0,2.0,97,0.00,,,0.00,0.000000,,2013-10-12 06:22:00,
2013-10-11 23:52:00,41.0,40.0,-100.00,West,272,0.0,2.0,96,0.00,,,0.00,0.000000,,2013-10-12 06:52:00,